sensor_id;sensor_type;location;lat;lon;timestamp;temperature;humidity
322;DHT22;148;51.480;7.208;2024-02-14T00:02:11;10.60;23.60
322;DHT22;148;51.480;7.208;2024-02-14T00:04:37;10.60;22.10
322;DHT22;148;51.480;7.208;2024-02-14T11:29:56;11.30;99.90
322;DHT22;148;51.480;7.208;2024-02-14T11:32:26;11.50;99.90
322;DHT22;148;51.480;7.208;2024-02-14T11:34:56;11.80;99.90
322;DHT22;148;51.480;7.208;2024-02-14T11:37:29;12.00;99.90
322;DHT22;148;51.480;7.208;2024-02-14T11:39:55;12.20;99.90
322;DHT22;148;51.480;7.208;2024-02-14T11:42:23;12.40;99.90
322;DHT22;148;51.480;7.208;2024-02-14T11:44:49;12.60;99.90
322;DHT22;148;51.480;7.208;2024-02-14T11:47:14;12.70;99.90
322;DHT22;148;51.480;7.208;2024-02-14T11:49:40;12.80;99.90
322;DHT22;148;51.480;7.208;2024-02-14T11:52:10;12.80;99.90
322;DHT22;148;51.480;7.208;2024-02-14T11:54:36;12.90;99.90
322;DHT22;148;51.480;7.208;2024-02-14T11:57:03;12.90;99.90
322;DHT22;148;51.480;7.208;2024-02-14T11:59:29;13.00;99.90
322;DHT22;148;51.480;7.208;2024-02-14T12:01:54;13.10;99.90
322;DHT22;148;51.480;7.208;2024-02-14T12:04:23;13.10;99.90
322;DHT22;148;51.480;7.208;2024-02-14T12:06:49;13.20;99.90
322;DHT22;148;51.480;7.208;2024-02-14T12:09:15;13.30;99.90
322;DHT22;148;51.480;7.208;2024-02-14T12:11:41;13.40;99.90
322;DHT22;148;51.480;7.208;2024-02-14T12:14:11;13.50;99.90
322;DHT22;148;51.480;7.208;2024-02-14T12:16:38;13.50;99.90
322;DHT22;148;51.480;7.208;2024-02-14T12:19:09;13.50;99.90
322;DHT22;148;51.480;7.208;2024-02-14T12:21:39;13.50;99.90
322;DHT22;148;51.480;7.208;2024-02-14T12:24:09;13.50;99.90
322;DHT22;148;51.480;7.208;2024-02-14T12:26:36;13.60;99.90
322;DHT22;148;51.480;7.208;2024-02-14T12:29:02;13.50;99.90
322;DHT22;148;51.480;7.208;2024-02-14T12:31:29;13.50;99.90
322;DHT22;148;51.480;7.208;2024-02-14T12:33:57;13.50;99.90
322;DHT22;148;51.480;7.208;2024-02-14T12:36:25;13.50;99.90
322;DHT22;148;51.480;7.208;2024-02-14T12:38:52;13.50;99.90
322;DHT22;148;51.480;7.208;2024-02-14T12:41:18;13.50;99.90
322;DHT22;148;51.480;7.208;2024-02-14T12:43:44;13.60;99.90
322;DHT22;148;51.480;7.208;2024-02-14T12:46:10;13.60;99.90
322;DHT22;148;51.480;7.208;2024-02-14T12:48:36;13.50;99.90
322;DHT22;148;51.480;7.208;2024-02-14T12:51:01;13.50;99.90
322;DHT22;148;51.480;7.208;2024-02-14T12:53:27;13.60;99.90
322;DHT22;148;51.480;7.208;2024-02-14T12:55:52;13.50;99.90
322;DHT22;148;51.480;7.208;2024-02-14T12:58:18;13.50;99.90
322;DHT22;148;51.480;7.208;2024-02-14T13:00:44;13.50;99.90
322;DHT22;148;51.480;7.208;2024-02-14T13:03:11;13.50;99.90
322;DHT22;148;51.480;7.208;2024-02-14T13:05:36;13.60;99.90
322;DHT22;148;51.480;7.208;2024-02-14T13:08:02;13.60;99.90
322;DHT22;148;51.480;7.208;2024-02-14T13:10:28;13.70;99.90
322;DHT22;148;51.480;7.208;2024-02-14T13:12:56;13.80;99.90
322;DHT22;148;51.480;7.208;2024-02-14T13:15:22;13.80;99.90
322;DHT22;148;51.480;7.208;2024-02-14T13:17:48;13.90;99.90
322;DHT22;148;51.480;7.208;2024-02-14T13:20:15;13.80;99.90
322;DHT22;148;51.480;7.208;2024-02-14T13:22:41;13.70;99.90
322;DHT22;148;51.480;7.208;2024-02-14T13:25:09;13.70;99.90
322;DHT22;148;51.480;7.208;2024-02-14T13:27:35;13.60;99.90
322;DHT22;148;51.480;7.208;2024-02-14T13:30:04;13.60;99.90
322;DHT22;148;51.480;7.208;2024-02-14T13:32:30;13.60;99.90
322;DHT22;148;51.480;7.208;2024-02-14T13:34:56;13.60;99.90
322;DHT22;148;51.480;7.208;2024-02-14T13:37:22;13.50;99.90
322;DHT22;148;51.480;7.208;2024-02-14T13:39:48;13.50;99.90
322;DHT22;148;51.480;7.208;2024-02-14T13:42:14;13.50;99.90
322;DHT22;148;51.480;7.208;2024-02-14T13:44:40;13.50;99.90
322;DHT22;148;51.480;7.208;2024-02-14T13:47:05;13.50;99.90
322;DHT22;148;51.480;7.208;2024-02-14T13:49:32;13.50;99.90
322;DHT22;148;51.480;7.208;2024-02-14T13:51:57;13.60;99.90
322;DHT22;148;51.480;7.208;2024-02-14T13:54:23;13.70;99.90
322;DHT22;148;51.480;7.208;2024-02-14T13:56:50;13.70;99.90
322;DHT22;148;51.480;7.208;2024-02-14T13:59:16;13.80;99.90
322;DHT22;148;51.480;7.208;2024-02-14T14:01:42;13.80;99.90
322;DHT22;148;51.480;7.208;2024-02-14T14:04:08;13.80;99.90
322;DHT22;148;51.480;7.208;2024-02-14T14:06:33;13.90;99.90
322;DHT22;148;51.480;7.208;2024-02-14T14:09:00;13.90;99.90
322;DHT22;148;51.480;7.208;2024-02-14T14:11:28;14.00;99.90
322;DHT22;148;51.480;7.208;2024-02-14T15:15:53;11.90;99.90
322;DHT22;148;51.480;7.208;2024-02-14T15:18:19;12.10;99.90
322;DHT22;148;51.480;7.208;2024-02-14T15:20:44;12.40;99.90
322;DHT22;148;51.480;7.208;2024-02-14T15:23:10;12.60;99.90
322;DHT22;148;51.480;7.208;2024-02-14T15:25:36;12.70;99.90
322;DHT22;148;51.480;7.208;2024-02-14T15:28:09;12.90;99.90
322;DHT22;148;51.480;7.208;2024-02-14T15:30:47;13.00;99.90
322;DHT22;148;51.480;7.208;2024-02-14T15:33:31;13.10;99.90
322;DHT22;148;51.480;7.208;2024-02-14T15:35:57;13.10;99.90
322;DHT22;148;51.480;7.208;2024-02-14T15:38:25;13.20;99.90
322;DHT22;148;51.480;7.208;2024-02-14T15:40:52;13.20;99.90
322;DHT22;148;51.480;7.208;2024-02-14T15:43:21;13.30;99.90
322;DHT22;148;51.480;7.208;2024-02-14T15:45:47;13.30;99.90
322;DHT22;148;51.480;7.208;2024-02-14T15:48:13;13.40;99.90
322;DHT22;148;51.480;7.208;2024-02-14T15:50:40;13.40;99.90
322;DHT22;148;51.480;7.208;2024-02-14T15:53:06;13.50;99.90
322;DHT22;148;51.480;7.208;2024-02-14T15:55:32;13.50;99.90
322;DHT22;148;51.480;7.208;2024-02-14T15:57:57;13.50;99.90
322;DHT22;148;51.480;7.208;2024-02-14T16:00:23;13.50;99.90
322;DHT22;148;51.480;7.208;2024-02-14T16:02:53;13.50;99.90
322;DHT22;148;51.480;7.208;2024-02-14T16:05:19;13.50;99.90
322;DHT22;148;51.480;7.208;2024-02-14T16:07:45;13.50;99.90
322;DHT22;148;51.480;7.208;2024-02-14T16:10:10;13.50;99.90
322;DHT22;148;51.480;7.208;2024-02-14T16:12:36;13.50;99.90
322;DHT22;148;51.480;7.208;2024-02-14T16:15:02;13.40;99.90
322;DHT22;148;51.480;7.208;2024-02-14T16:17:28;13.40;99.90
322;DHT22;148;51.480;7.208;2024-02-14T16:19:54;13.50;99.90
322;DHT22;148;51.480;7.208;2024-02-14T16:22:19;13.60;99.90
322;DHT22;148;51.480;7.208;2024-02-14T16:24:46;13.60;99.90
322;DHT22;148;51.480;7.208;2024-02-14T16:27:14;13.60;99.90
322;DHT22;148;51.480;7.208;2024-02-14T16:29:41;13.60;99.90
322;DHT22;148;51.480;7.208;2024-02-14T16:32:06;13.70;99.90
322;DHT22;148;51.480;7.208;2024-02-14T16:34:32;13.70;99.90
322;DHT22;148;51.480;7.208;2024-02-14T16:36:58;13.80;99.90
322;DHT22;148;51.480;7.208;2024-02-14T16:39:24;13.90;99.90
322;DHT22;148;51.480;7.208;2024-02-14T16:41:50;13.80;99.90
322;DHT22;148;51.480;7.208;2024-02-14T16:44:15;13.80;99.90
322;DHT22;148;51.480;7.208;2024-02-14T16:46:41;13.80;99.90
322;DHT22;148;51.480;7.208;2024-02-14T16:49:06;13.80;99.90
322;DHT22;148;51.480;7.208;2024-02-14T16:51:33;13.80;99.90
322;DHT22;148;51.480;7.208;2024-02-14T16:53:58;13.80;99.90
322;DHT22;148;51.480;7.208;2024-02-14T16:56:24;13.80;99.90
322;DHT22;148;51.480;7.208;2024-02-14T16:58:52;13.80;99.90
322;DHT22;148;51.480;7.208;2024-02-14T17:01:17;13.80;99.90
322;DHT22;148;51.480;7.208;2024-02-14T17:03:43;13.80;99.90
322;DHT22;148;51.480;7.208;2024-02-14T17:06:27;13.80;99.90
322;DHT22;148;51.480;7.208;2024-02-14T17:08:52;13.80;99.90
322;DHT22;148;51.480;7.208;2024-02-14T17:11:18;13.80;99.90
322;DHT22;148;51.480;7.208;2024-02-14T17:13:44;13.70;99.90
322;DHT22;148;51.480;7.208;2024-02-14T17:16:10;13.80;99.90
322;DHT22;148;51.480;7.208;2024-02-14T17:18:36;13.70;99.90
322;DHT22;148;51.480;7.208;2024-02-14T17:21:02;13.80;99.90
322;DHT22;148;51.480;7.208;2024-02-14T17:23:28;13.70;99.90
322;DHT22;148;51.480;7.208;2024-02-14T17:25:54;13.70;99.90
322;DHT22;148;51.480;7.208;2024-02-14T17:28:20;13.70;99.90
322;DHT22;148;51.480;7.208;2024-02-14T17:30:45;13.70;99.90
322;DHT22;148;51.480;7.208;2024-02-14T17:33:11;13.70;99.90
322;DHT22;148;51.480;7.208;2024-02-14T17:35:37;13.80;99.90
322;DHT22;148;51.480;7.208;2024-02-14T17:38:02;13.80;99.90
322;DHT22;148;51.480;7.208;2024-02-14T17:40:28;13.80;99.90
322;DHT22;148;51.480;7.208;2024-02-14T17:42:53;13.70;99.90
322;DHT22;148;51.480;7.208;2024-02-14T17:45:19;13.70;99.90
322;DHT22;148;51.480;7.208;2024-02-14T17:47:45;13.80;99.90
322;DHT22;148;51.480;7.208;2024-02-14T17:50:10;13.70;99.90
322;DHT22;148;51.480;7.208;2024-02-14T17:52:36;13.70;99.90
322;DHT22;148;51.480;7.208;2024-02-14T17:55:04;13.70;99.90
322;DHT22;148;51.480;7.208;2024-02-14T17:57:31;13.70;99.90
322;DHT22;148;51.480;7.208;2024-02-14T17:59:57;13.70;99.90
322;DHT22;148;51.480;7.208;2024-02-14T18:02:23;13.80;99.90
322;DHT22;148;51.480;7.208;2024-02-14T18:04:48;13.70;99.90
322;DHT22;148;51.480;7.208;2024-02-14T18:07:16;13.70;99.90
322;DHT22;148;51.480;7.208;2024-02-14T18:09:42;13.80;99.90
322;DHT22;148;51.480;7.208;2024-02-14T18:12:07;13.80;99.90
322;DHT22;148;51.480;7.208;2024-02-14T18:14:34;13.80;99.90
322;DHT22;148;51.480;7.208;2024-02-14T18:17:00;13.80;99.90
322;DHT22;148;51.480;7.208;2024-02-14T18:19:26;13.80;99.90
322;DHT22;148;51.480;7.208;2024-02-14T18:21:51;13.80;99.90
322;DHT22;148;51.480;7.208;2024-02-14T18:24:17;13.80;99.90
322;DHT22;148;51.480;7.208;2024-02-14T18:26:44;13.80;99.90
322;DHT22;148;51.480;7.208;2024-02-14T18:29:12;13.80;99.90
322;DHT22;148;51.480;7.208;2024-02-14T18:31:38;13.70;99.90
322;DHT22;148;51.480;7.208;2024-02-14T18:34:04;13.70;99.90
322;DHT22;148;51.480;7.208;2024-02-14T18:36:31;13.80;99.90
322;DHT22;148;51.480;7.208;2024-02-14T18:38:57;13.80;99.90
322;DHT22;148;51.480;7.208;2024-02-14T18:41:23;13.80;99.90
322;DHT22;148;51.480;7.208;2024-02-14T18:43:48;13.80;99.90
322;DHT22;148;51.480;7.208;2024-02-14T18:46:15;13.80;99.90
322;DHT22;148;51.480;7.208;2024-02-14T18:48:40;13.80;99.90
322;DHT22;148;51.480;7.208;2024-02-14T18:51:06;13.90;99.90
322;DHT22;148;51.480;7.208;2024-02-14T18:53:32;13.90;99.90
322;DHT22;148;51.480;7.208;2024-02-14T18:55:57;13.90;99.90
322;DHT22;148;51.480;7.208;2024-02-14T18:58:24;13.90;99.90
322;DHT22;148;51.480;7.208;2024-02-14T19:00:49;13.90;99.90
322;DHT22;148;51.480;7.208;2024-02-14T19:03:17;13.90;99.90
322;DHT22;148;51.480;7.208;2024-02-14T19:05:43;13.90;99.90
322;DHT22;148;51.480;7.208;2024-02-14T19:08:09;13.90;99.90
322;DHT22;148;51.480;7.208;2024-02-14T19:10:35;13.90;99.90
322;DHT22;148;51.480;7.208;2024-02-14T19:13:00;13.80;99.90
322;DHT22;148;51.480;7.208;2024-02-14T19:15:26;13.90;99.90
322;DHT22;148;51.480;7.208;2024-02-14T19:17:52;13.90;99.90
322;DHT22;148;51.480;7.208;2024-02-14T19:20:18;13.90;99.90
322;DHT22;148;51.480;7.208;2024-02-14T19:22:45;13.90;99.90
322;DHT22;148;51.480;7.208;2024-02-14T19:25:11;13.90;99.90
322;DHT22;148;51.480;7.208;2024-02-14T19:27:36;13.80;99.90
322;DHT22;148;51.480;7.208;2024-02-14T19:30:05;13.80;99.90
322;DHT22;148;51.480;7.208;2024-02-14T19:32:31;13.80;99.90
322;DHT22;148;51.480;7.208;2024-02-14T19:35:04;13.80;99.90
322;DHT22;148;51.480;7.208;2024-02-14T19:37:30;13.80;99.90
322;DHT22;148;51.480;7.208;2024-02-14T19:39:56;13.80;99.90
322;DHT22;148;51.480;7.208;2024-02-14T19:42:22;13.70;99.90
322;DHT22;148;51.480;7.208;2024-02-14T19:44:49;13.70;99.90
322;DHT22;148;51.480;7.208;2024-02-14T19:47:14;13.70;99.90
322;DHT22;148;51.480;7.208;2024-02-14T19:49:41;13.80;99.90
322;DHT22;148;51.480;7.208;2024-02-14T19:52:06;13.80;99.90
322;DHT22;148;51.480;7.208;2024-02-14T19:54:35;13.80;99.90
322;DHT22;148;51.480;7.208;2024-02-14T19:57:01;13.80;99.90
322;DHT22;148;51.480;7.208;2024-02-14T19:59:29;13.90;99.90
322;DHT22;148;51.480;7.208;2024-02-14T20:01:55;13.90;99.90
322;DHT22;148;51.480;7.208;2024-02-14T20:04:21;13.80;99.90
322;DHT22;148;51.480;7.208;2024-02-14T20:06:46;13.80;99.90
322;DHT22;148;51.480;7.208;2024-02-14T20:09:12;13.80;99.90
322;DHT22;148;51.480;7.208;2024-02-14T20:11:43;13.80;99.90
322;DHT22;148;51.480;7.208;2024-02-14T20:14:09;13.90;99.90
322;DHT22;148;51.480;7.208;2024-02-14T20:16:34;13.90;99.90
322;DHT22;148;51.480;7.208;2024-02-14T20:19:00;13.90;99.90
322;DHT22;148;51.480;7.208;2024-02-14T20:21:25;13.90;99.90
322;DHT22;148;51.480;7.208;2024-02-14T20:23:53;13.90;99.90
322;DHT22;148;51.480;7.208;2024-02-14T20:26:19;13.90;99.90
322;DHT22;148;51.480;7.208;2024-02-14T20:28:45;13.90;99.90
322;DHT22;148;51.480;7.208;2024-02-14T20:31:10;14.00;99.90
322;DHT22;148;51.480;7.208;2024-02-14T20:33:36;14.00;99.90
322;DHT22;148;51.480;7.208;2024-02-14T20:36:01;14.00;99.90
322;DHT22;148;51.480;7.208;2024-02-14T20:38:29;14.00;99.90
322;DHT22;148;51.480;7.208;2024-02-14T20:40:55;14.00;99.90
322;DHT22;148;51.480;7.208;2024-02-14T20:43:20;14.00;99.90
322;DHT22;148;51.480;7.208;2024-02-14T20:45:46;14.00;99.90
322;DHT22;148;51.480;7.208;2024-02-14T20:48:13;14.00;99.90
322;DHT22;148;51.480;7.208;2024-02-14T20:50:40;14.00;99.90
322;DHT22;148;51.480;7.208;2024-02-14T20:53:06;14.00;99.90
322;DHT22;148;51.480;7.208;2024-02-14T20:55:31;14.00;99.90
322;DHT22;148;51.480;7.208;2024-02-14T20:57:57;13.90;99.90
322;DHT22;148;51.480;7.208;2024-02-14T21:00:23;14.00;99.90
322;DHT22;148;51.480;7.208;2024-02-14T21:02:48;14.00;99.90
322;DHT22;148;51.480;7.208;2024-02-14T21:05:14;14.00;99.90
322;DHT22;148;51.480;7.208;2024-02-14T21:07:39;14.10;99.90
322;DHT22;148;51.480;7.208;2024-02-14T21:10:05;14.10;99.90
322;DHT22;148;51.480;7.208;2024-02-14T21:12:31;14.10;99.90
322;DHT22;148;51.480;7.208;2024-02-14T21:14:57;14.20;99.90
322;DHT22;148;51.480;7.208;2024-02-14T21:17:23;14.20;99.90
322;DHT22;148;51.480;7.208;2024-02-14T21:19:49;14.30;99.90
322;DHT22;148;51.480;7.208;2024-02-14T21:22:15;14.30;99.90
322;DHT22;148;51.480;7.208;2024-02-14T21:24:40;14.30;99.90
322;DHT22;148;51.480;7.208;2024-02-14T21:27:06;14.20;99.90
322;DHT22;148;51.480;7.208;2024-02-14T21:29:33;14.20;99.90
322;DHT22;148;51.480;7.208;2024-02-14T21:31:58;14.20;99.90
322;DHT22;148;51.480;7.208;2024-02-14T21:34:25;14.10;99.90
322;DHT22;148;51.480;7.208;2024-02-14T21:36:53;14.10;99.90
322;DHT22;148;51.480;7.208;2024-02-14T21:39:21;14.10;99.90
322;DHT22;148;51.480;7.208;2024-02-14T21:41:47;14.10;99.90
322;DHT22;148;51.480;7.208;2024-02-14T21:44:13;14.10;99.90
322;DHT22;148;51.480;7.208;2024-02-14T21:46:39;14.20;99.90
322;DHT22;148;51.480;7.208;2024-02-14T21:49:04;14.20;99.90
322;DHT22;148;51.480;7.208;2024-02-14T21:51:33;14.20;99.90
322;DHT22;148;51.480;7.208;2024-02-14T21:53:58;14.10;99.90
322;DHT22;148;51.480;7.208;2024-02-14T21:56:24;14.20;99.90
322;DHT22;148;51.480;7.208;2024-02-14T21:58:50;14.10;99.90
322;DHT22;148;51.480;7.208;2024-02-14T22:01:16;14.10;99.90
322;DHT22;148;51.480;7.208;2024-02-14T22:03:41;14.10;99.90
322;DHT22;148;51.480;7.208;2024-02-14T22:06:07;14.10;99.90
322;DHT22;148;51.480;7.208;2024-02-14T22:08:33;14.20;99.90
322;DHT22;148;51.480;7.208;2024-02-14T22:10:59;14.20;99.90
322;DHT22;148;51.480;7.208;2024-02-14T22:13:25;14.20;99.90
322;DHT22;148;51.480;7.208;2024-02-14T22:15:50;14.20;99.90
322;DHT22;148;51.480;7.208;2024-02-14T22:18:17;14.10;99.90
322;DHT22;148;51.480;7.208;2024-02-14T22:20:46;14.10;99.90
322;DHT22;148;51.480;7.208;2024-02-14T22:23:11;14.10;99.90
322;DHT22;148;51.480;7.208;2024-02-14T22:25:37;14.10;99.90
322;DHT22;148;51.480;7.208;2024-02-14T22:28:03;14.10;99.90
322;DHT22;148;51.480;7.208;2024-02-14T22:30:29;14.10;99.90
322;DHT22;148;51.480;7.208;2024-02-14T22:32:55;14.10;99.90
322;DHT22;148;51.480;7.208;2024-02-14T22:35:21;14.10;99.90
322;DHT22;148;51.480;7.208;2024-02-14T22:37:46;14.10;99.90
322;DHT22;148;51.480;7.208;2024-02-14T22:40:13;14.10;99.90
322;DHT22;148;51.480;7.208;2024-02-14T22:42:44;14.10;99.90
322;DHT22;148;51.480;7.208;2024-02-14T22:45:12;14.10;99.90
322;DHT22;148;51.480;7.208;2024-02-14T22:47:38;14.10;99.90
322;DHT22;148;51.480;7.208;2024-02-14T22:50:06;14.20;99.90
322;DHT22;148;51.480;7.208;2024-02-14T22:52:33;14.20;99.90
322;DHT22;148;51.480;7.208;2024-02-14T22:54:58;14.20;99.90
322;DHT22;148;51.480;7.208;2024-02-14T22:57:24;14.20;99.90
322;DHT22;148;51.480;7.208;2024-02-14T22:59:50;14.20;99.90
322;DHT22;148;51.480;7.208;2024-02-14T23:02:15;14.20;99.90
322;DHT22;148;51.480;7.208;2024-02-14T23:04:42;14.20;99.90
